Time;durP1;ratioP1;P1;durP2;ratioP2;P2;SDS_P1;SDS_P2;PMS_P1;PMS_P2;Temp;Humidity;BMP_temperature;BMP_pressure;BME280_temperature;BME280_humidity;BME280_pressure;Samples;Min_cycle;Max_cycle;Signal;HPM_P1;HPM_P2
2020/12/07 00:00:32;;;;;;;;;;;4.00;99.90;;;;;;5098029;28;19942;-75
2020/12/07 00:02:58;;;;;;;;;;;4.10;99.90;;;;;;5090477;28;19995;-75
2020/12/07 00:05:23;;;;;;;;;;;4.10;99.90;;;;;;5099016;28;19957;-75
2020/12/07 00:07:49;;;;;;;;;;;4.30;99.90;;;;;;5089146;28;20023;-75
2020/12/07 00:10:14;;;;;;;;;;;4.30;99.90;;;;;;5115761;27;20356;-75
2020/12/07 00:12:41;;;;;;;;;;;4.20;99.90;;;;;;5088713;28;19904;-75
2020/12/07 00:15:06;;;;;;;;;;;4.20;99.90;;;;;;5099894;28;19915;-75
2020/12/07 00:17:32;;;;;;;;;;;4.30;99.90;;;;;;5095136;28;19931;-76
2020/12/07 00:19:58;;;;;;;;;;;4.10;99.90;;;;;;5088084;28;20268;-75
2020/12/07 00:22:24;;;;;;;;;;;4.30;99.90;;;;;;5088887;28;19995;-76
2020/12/07 00:24:50;;;;;;;;;;;4.30;99.90;;;;;;5100247;28;20464;-76
2020/12/07 00:27:19;;;;;;;;;;;4.20;99.90;;;;;;5089014;28;19952;-76
2020/12/07 00:29:45;;;;;;;;;;;4.20;99.90;;;;;;5099755;28;19924;-75
2020/12/07 00:32:10;;;;;;;;;;;4.30;99.90;;;;;;5088929;28;19915;-76
2020/12/07 00:34:36;;;;;;;;;;;4.20;99.90;;;;;;5099088;28;19918;-75
2020/12/07 00:37:01;;;;;;;;;;;4.40;99.90;;;;;;5089482;28;19908;-75
2020/12/07 00:39:27;;;;;;;;;;;4.20;99.90;;;;;;5097968;28;19911;-75
2020/12/07 00:41:56;;;;;;;;;;;4.20;99.90;;;;;;5090995;28;20370;-74
2020/12/07 00:44:21;;;;;;;;;;;4.10;99.90;;;;;;5096711;28;19965;-75
2020/12/07 00:46:47;;;;;;;;;;;4.10;99.90;;;;;;5091700;28;19908;-75
2020/12/07 00:49:12;;;;;;;;;;;4.20;99.90;;;;;;5095458;28;20409;-76
2020/12/07 00:51:38;;;;;;;;;;;4.20;99.90;;;;;;5099293;28;19908;-75
2020/12/07 00:54:03;;;;;;;;;;;4.30;99.90;;;;;;5101049;28;19998;-74
2020/12/07 00:56:29;;;;;;;;;;;4.20;99.90;;;;;;5100969;28;20007;-75
2020/12/07 00:58:54;;;;;;;;;;;4.30;99.90;;;;;;5099724;28;19904;-75
2020/12/07 01:01:20;;;;;;;;;;;4.40;99.90;;;;;;5105830;27;19907;-74
2020/12/07 01:03:45;;;;;;;;;;;4.20;99.90;;;;;;5120927;27;19916;-75
2020/12/07 01:06:11;;;;;;;;;;;4.10;99.90;;;;;;5107693;28;19912;-76
2020/12/07 01:08:36;;;;;;;;;;;4.20;99.90;;;;;;5109272;28;20416;-75
2020/12/07 01:11:02;;;;;;;;;;;4.40;99.90;;;;;;5104246;28;19997;-75
2020/12/07 01:13:27;;;;;;;;;;;4.20;99.90;;;;;;5097534;28;20477;-75
2020/12/07 01:15:53;;;;;;;;;;;4.20;99.90;;;;;;5104116;28;19927;-75
2020/12/07 01:18:18;;;;;;;;;;;4.20;99.90;;;;;;5103925;27;19916;-75
2020/12/07 01:20:44;;;;;;;;;;;4.20;99.90;;;;;;5104194;28;19923;-75
2020/12/07 01:23:09;;;;;;;;;;;4.00;99.90;;;;;;5097570;28;20059;-75
2020/12/07 01:25:35;;;;;;;;;;;3.90;99.90;;;;;;5103858;28;20364;-75
2020/12/07 01:28:00;;;;;;;;;;;4.00;99.90;;;;;;5096500;28;19944;-75
2020/12/07 01:30:26;;;;;;;;;;;4.00;99.90;;;;;;5104660;28;20310;-77
2020/12/07 01:32:52;;;;;;;;;;;4.10;99.90;;;;;;5095139;28;19912;-77
2020/12/07 01:35:17;;;;;;;;;;;3.90;99.90;;;;;;5106120;28;19908;-77
2020/12/07 01:37:43;;;;;;;;;;;4.00;99.90;;;;;;5095088;28;20364;-77
2020/12/07 01:40:08;;;;;;;;;;;4.00;99.90;;;;;;5106072;28;19907;-77
2020/12/07 01:42:34;;;;;;;;;;;4.00;99.90;;;;;;5094947;28;20363;-78
2020/12/07 01:44:59;;;;;;;;;;;4.10;99.90;;;;;;5105795;28;20392;-78
2020/12/07 01:47:27;;;;;;;;;;;4.10;99.90;;;;;;5094991;28;19903;-77
2020/12/07 01:49:52;;;;;;;;;;;4.20;99.90;;;;;;5105982;28;20006;-78
2020/12/07 01:52:19;;;;;;;;;;;4.30;99.90;;;;;;5094991;28;20372;-77
2020/12/07 01:54:46;;;;;;;;;;;4.30;99.90;;;;;;5106042;28;20384;-77
2020/12/07 01:57:11;;;;;;;;;;;4.30;99.90;;;;;;5094893;28;20364;-77
2020/12/07 01:59:37;;;;;;;;;;;4.10;99.90;;;;;;5105046;28;19991;-77
2020/12/07 02:02:02;;;;;;;;;;;4.30;99.90;;;;;;5092929;28;19911;-76
2020/12/07 02:04:28;;;;;;;;;;;4.40;99.90;;;;;;5100463;28;19914;-77
2020/12/07 02:06:53;;;;;;;;;;;4.50;99.90;;;;;;5093895;28;19930;-77
2020/12/07 02:09:24;;;;;;;;;;;4.40;99.90;;;;;;5099144;28;20335;-77
2020/12/07 02:11:50;;;;;;;;;;;4.30;99.90;;;;;;5094367;28;19936;-76
2020/12/07 02:14:15;;;;;;;;;;;4.20;99.90;;;;;;5113886;27;19990;-77
2020/12/07 02:16:41;;;;;;;;;;;4.30;99.90;;;;;;5095507;28;20003;-77
2020/12/07 02:19:06;;;;;;;;;;;4.20;99.90;;;;;;5103907;28;19908;-77
2020/12/07 02:21:32;;;;;;;;;;;4.10;99.90;;;;;;5096545;28;19904;-77
2020/12/07 02:23:57;;;;;;;;;;;4.10;99.90;;;;;;5095765;28;19961;-76
2020/12/07 02:26:23;;;;;;;;;;;4.00;99.90;;;;;;5097787;28;19973;-77
2020/12/07 02:28:49;;;;;;;;;;;4.00;99.90;;;;;;5094384;28;20569;-76
2020/12/07 02:31:15;;;;;;;;;;;4.00;99.90;;;;;;5099099;28;19910;-76
2020/12/07 02:33:40;;;;;;;;;;;4.10;99.90;;;;;;5093296;28;19908;-76
2020/12/07 02:36:09;;;;;;;;;;;3.90;99.90;;;;;;5102278;28;19904;-75
2020/12/07 02:38:36;;;;;;;;;;;3.90;99.90;;;;;;5087253;28;19927;-77
2020/12/07 02:41:02;;;;;;;;;;;3.90;99.90;;;;;;5099812;28;19953;-76
2020/12/07 02:43:27;;;;;;;;;;;3.90;99.90;;;;;;5092987;28;20397;-76
2020/12/07 02:45:53;;;;;;;;;;;4.10;99.90;;;;;;5099682;28;19915;-78
2020/12/07 02:48:18;;;;;;;;;;;4.10;99.90;;;;;;5092949;28;19918;-77
2020/12/07 02:50:44;;;;;;;;;;;4.10;99.90;;;;;;5099578;28;20057;-77
2020/12/07 02:53:09;;;;;;;;;;;4.10;99.90;;;;;;5090919;28;19999;-76
2020/12/07 02:55:35;;;;;;;;;;;4.10;99.90;;;;;;5101836;28;19923;-76
2020/12/07 02:58:00;;;;;;;;;;;4.20;99.90;;;;;;5109028;28;19918;-76
2020/12/07 03:00:26;;;;;;;;;;;4.20;99.90;;;;;;5100133;28;19923;-76
2020/12/07 03:02:51;;;;;;;;;;;4.20;99.90;;;;;;5090689;28;19915;-76
2020/12/07 03:05:17;;;;;;;;;;;4.10;99.90;;;;;;5101511;28;19914;-76
2020/12/07 03:07:42;;;;;;;;;;;4.10;99.90;;;;;;5071707;28;19950;-77
2020/12/07 03:10:08;;;;;;;;;;;4.00;99.90;;;;;;5101481;28;19904;-77
2020/12/07 03:12:33;;;;;;;;;;;4.00;99.90;;;;;;5090085;28;19950;-77
2020/12/07 03:14:59;;;;;;;;;;;4.00;99.90;;;;;;5100880;28;19958;-76
2020/12/07 03:17:24;;;;;;;;;;;3.90;99.90;;;;;;5095051;28;20594;-76
2020/12/07 03:19:50;;;;;;;;;;;4.00;99.90;;;;;;5102791;28;19930;-76
2020/12/07 03:22:16;;;;;;;;;;;4.00;99.90;;;;;;5089857;28;19950;-77
2020/12/07 03:24:41;;;;;;;;;;;3.90;99.90;;;;;;5100451;28;20318;-77
2020/12/07 03:27:07;;;;;;;;;;;3.80;99.90;;;;;;5090296;28;19991;-77
2020/12/07 03:29:32;;;;;;;;;;;3.90;99.90;;;;;;5098918;28;20286;-76
2020/12/07 03:31:58;;;;;;;;;;;3.80;99.90;;;;;;5091638;28;19904;-76
2020/12/07 03:34:23;;;;;;;;;;;3.90;99.90;;;;;;5097612;28;20324;-77
2020/12/07 03:36:49;;;;;;;;;;;3.90;99.90;;;;;;5092647;28;20245;-77
2020/12/07 03:39:14;;;;;;;;;;;3.90;99.90;;;;;;5074657;28;19908;-77
2020/12/07 03:41:40;;;;;;;;;;;3.80;99.90;;;;;;5089570;28;19911;-77
2020/12/07 03:44:05;;;;;;;;;;;3.70;99.90;;;;;;5094947;28;19915;-77
2020/12/07 03:46:31;;;;;;;;;;;3.80;99.90;;;;;;5095099;28;20409;-77
2020/12/07 03:48:56;;;;;;;;;;;3.90;99.90;;;;;;5093666;28;19920;-76
2020/12/07 03:51:22;;;;;;;;;;;3.90;99.90;;;;;;5096172;28;20252;-77
2020/12/07 03:53:48;;;;;;;;;;;3.80;99.90;;;;;;5074076;28;20400;-76
2020/12/07 03:56:13;;;;;;;;;;;3.80;99.90;;;;;;5097379;28;19920;-77
2020/12/07 03:58:39;;;;;;;;;;;3.80;99.90;;;;;;5091409;28;19918;-77
2020/12/07 04:01:05;;;;;;;;;;;3.80;99.90;;;;;;5098068;28;19999;-77
2020/12/07 04:03:31;;;;;;;;;;;3.80;99.90;;;;;;5091554;28;19911;-78
2020/12/07 04:08:22;;;;;;;;;;;3.80;99.90;;;;;;5091545;28;19916;-76
2020/12/07 04:10:48;;;;;;;;;;;3.60;99.90;;;;;;5097969;28;19904;-77
2020/12/07 04:13:14;;;;;;;;;;;3.60;99.90;;;;;;5091382;28;19918;-76
2020/12/07 04:15:39;;;;;;;;;;;3.70;99.90;;;;;;5097788;28;19995;-77
2020/12/07 04:18:05;;;;;;;;;;;3.60;99.90;;;;;;5097541;28;20011;-77
2020/12/07 04:20:30;;;;;;;;;;;3.60;99.90;;;;;;5098528;28;19915;-77
2020/12/07 04:22:56;;;;;;;;;;;3.60;99.90;;;;;;5089235;28;20276;-76
2020/12/07 04:25:23;;;;;;;;;;;3.50;99.90;;;;;;5099368;28;20364;-76
2020/12/07 04:27:49;;;;;;;;;;;3.50;99.90;;;;;;5089244;28;19915;-77
2020/12/07 04:30:14;;;;;;;;;;;3.50;99.90;;;;;;5099747;28;20372;-77
2020/12/07 04:32:40;;;;;;;;;;;3.50;99.90;;;;;;5088736;28;19904;-77
2020/12/07 04:35:05;;;;;;;;;;;3.60;99.90;;;;;;5100146;28;19929;-76
2020/12/07 04:37:31;;;;;;;;;;;3.40;99.90;;;;;;5088775;28;19908;-77
2020/12/07 04:39:56;;;;;;;;;;;3.50;99.90;;;;;;5100204;28;20365;-77
2020/12/07 04:42:22;;;;;;;;;;;3.50;99.90;;;;;;5088967;28;19912;-77
2020/12/07 04:44:48;;;;;;;;;;;3.40;99.90;;;;;;5093349;28;20014;-77
2020/12/07 04:47:16;;;;;;;;;;;3.40;99.90;;;;;;5109091;28;19957;-77
2020/12/07 04:49:42;;;;;;;;;;;3.30;99.90;;;;;;5102102;28;19916;-78
2020/12/07 04:52:09;;;;;;;;;;;3.40;99.90;;;;;;5089318;28;20042;-75
2020/12/07 04:54:36;;;;;;;;;;;3.30;99.90;;;;;;5098230;28;19915;-75
2020/12/07 04:57:02;;;;;;;;;;;3.30;99.90;;;;;;5090138;28;19904;-75
2020/12/07 04:59:30;;;;;;;;;;;3.40;99.90;;;;;;5075454;28;19908;-75
2020/12/07 05:01:55;;;;;;;;;;;3.30;99.90;;;;;;5088457;28;19904;-76
2020/12/07 05:04:21;;;;;;;;;;;3.20;99.90;;;;;;5083680;28;20154;-75
2020/12/07 05:07:06;;;;;;;;;;;3.30;99.90;;;;;;5074236;28;20347;-75
2020/12/07 05:09:33;;;;;;;;;;;3.40;99.90;;;;;;5113231;28;19946;-76
2020/12/07 05:12:02;;;;;;;;;;;3.40;99.90;;;;;;5090591;28;20327;-75
2020/12/07 05:14:28;;;;;;;;;;;3.30;99.90;;;;;;5096829;28;19926;-76
2020/12/07 05:16:54;;;;;;;;;;;3.20;99.90;;;;;;5091970;28;19952;-76
2020/12/07 05:19:20;;;;;;;;;;;3.30;99.90;;;;;;5102179;28;19951;-76
2020/12/07 05:21:46;;;;;;;;;;;3.30;99.90;;;;;;5092365;28;20006;-76
2020/12/07 05:24:11;;;;;;;;;;;3.20;99.90;;;;;;5094877;28;20316;-75
2020/12/07 05:26:38;;;;;;;;;;;3.10;99.90;;;;;;5075309;28;20668;-76
2020/12/07 05:29:10;;;;;;;;;;;3.20;99.90;;;;;;5093584;28;20025;-76
2020/12/07 05:31:36;;;;;;;;;;;3.10;99.90;;;;;;5093632;28;19936;-75
2020/12/07 05:34:04;;;;;;;;;;;3.00;99.90;;;;;;5093215;28;19993;-76
2020/12/07 05:36:29;;;;;;;;;;;3.20;99.90;;;;;;5094751;28;20539;-76
2020/12/07 05:38:55;;;;;;;;;;;3.10;99.90;;;;;;5095970;28;19904;-76
2020/12/07 05:41:22;;;;;;;;;;;3.20;99.90;;;;;;5099852;28;19961;-76
2020/12/07 05:43:50;;;;;;;;;;;3.10;99.90;;;;;;5098943;28;19955;-80
2020/12/07 05:46:16;;;;;;;;;;;3.00;99.90;;;;;;5122026;27;20288;-78
2020/12/07 05:48:43;;;;;;;;;;;3.00;99.90;;;;;;5107806;27;19983;-76
2020/12/07 05:51:11;;;;;;;;;;;3.20;99.90;;;;;;5101006;28;19904;-77
2020/12/07 05:53:37;;;;;;;;;;;3.20;99.90;;;;;;5094522;28;20163;-75
2020/12/07 05:56:03;;;;;;;;;;;3.20;99.90;;;;;;5100930;28;19912;-75
2020/12/07 05:58:30;;;;;;;;;;;3.30;99.90;;;;;;5101460;28;20383;-81
2020/12/07 06:00:58;;;;;;;;;;;3.40;99.90;;;;;;5093005;28;19907;-75
2020/12/07 06:03:24;;;;;;;;;;;3.30;99.90;;;;;;5110428;28;20428;-76
2020/12/07 06:05:49;;;;;;;;;;;3.30;99.90;;;;;;5113693;28;20339;-77
2020/12/07 06:08:17;;;;;;;;;;;3.40;99.90;;;;;;5109229;28;19923;-75
2020/12/07 06:10:49;;;;;;;;;;;3.30;99.90;;;;;;5108505;28;20364;-75
2020/12/07 06:13:18;;;;;;;;;;;3.20;99.90;;;;;;5109911;28;19908;-76
2020/12/07 06:15:47;;;;;;;;;;;3.10;99.90;;;;;;5111287;28;19904;-75
2020/12/07 06:18:29;;;;;;;;;;;3.20;99.90;;;;;;5109353;28;19925;-75
2020/12/07 06:20:56;;;;;;;;;;;3.30;99.90;;;;;;5107222;28;19908;-78
2020/12/07 06:23:38;;;;;;;;;;;3.30;99.90;;;;;;5108114;28;20314;-75
2020/12/07 06:26:07;;;;;;;;;;;4.30;99.90;;;;;;5100882;28;19912;-75
2020/12/07 06:28:34;;;;;;;;;;;4.00;99.90;;;;;;5109007;28;19965;-74
2020/12/07 06:31:19;;;;;;;;;;;3.60;99.90;;;;;;5106959;28;19972;-75
2020/12/07 06:33:54;;;;;;;;;;;3.40;99.90;;;;;;5104838;28;19931;-75
2020/12/07 06:36:29;;;;;;;;;;;3.50;99.90;;;;;;5103496;28;19908;-75
2020/12/07 06:38:58;;;;;;;;;;;3.40;99.90;;;;;;5104658;28;19919;-75
2020/12/07 06:41:34;;;;;;;;;;;3.30;99.90;;;;;;5113735;28;19918;-75
2020/12/07 06:44:00;;;;;;;;;;;3.40;99.90;;;;;;5104168;28;19923;-75
2020/12/07 06:46:45;;;;;;;;;;;3.30;99.90;;;;;;5097836;28;19904;-75
2020/12/07 06:49:11;;;;;;;;;;;3.30;99.90;;;;;;5096215;28;20280;-75
2020/12/07 06:51:38;;;;;;;;;;;3.20;99.90;;;;;;5096017;28;19904;-75
2020/12/07 06:54:13;;;;;;;;;;;3.20;99.90;;;;;;5095735;28;19908;-75
2020/12/07 06:56:38;;;;;;;;;;;3.30;99.90;;;;;;5095736;28;19904;-75
2020/12/07 06:59:08;;;;;;;;;;;3.30;99.90;;;;;;5095401;28;19915;-74
2020/12/07 07:01:34;;;;;;;;;;;3.30;99.90;;;;;;5096345;28;20375;-74
2020/12/07 07:03:59;;;;;;;;;;;3.30;99.90;;;;;;5094625;28;19908;-74
2020/12/07 07:06:25;;;;;;;;;;;3.30;99.90;;;;;;5097574;28;19942;-75
2020/12/07 07:08:51;;;;;;;;;;;3.40;99.90;;;;;;5093322;28;19911;-75
2020/12/07 07:11:16;;;;;;;;;;;3.30;99.90;;;;;;5098562;28;20004;-74
2020/12/07 07:13:46;;;;;;;;;;;3.30;99.90;;;;;;5104294;28;19943;-74
2020/12/07 07:16:12;;;;;;;;;;;3.40;99.90;;;;;;5102024;28;19928;-74
2020/12/07 07:18:37;;;;;;;;;;;3.30;99.90;;;;;;5104988;28;19903;-73
2020/12/07 07:21:03;;;;;;;;;;;3.20;99.90;;;;;;5108274;28;19908;-73
2020/12/07 07:23:30;;;;;;;;;;;3.30;99.90;;;;;;5107231;28;20352;-73
2020/12/07 07:26:12;;;;;;;;;;;3.40;99.90;;;;;;5107208;28;19915;-74
2020/12/07 07:28:38;;;;;;;;;;;3.40;99.90;;;;;;5106814;27;19983;-73
2020/12/07 07:31:04;;;;;;;;;;;3.40;99.90;;;;;;5108879;28;20106;-75
2020/12/07 07:33:31;;;;;;;;;;;3.40;99.90;;;;;;5106157;28;19933;-74
2020/12/07 07:35:56;;;;;;;;;;;3.30;99.90;;;;;;5107349;28;19918;-73
2020/12/07 07:38:27;;;;;;;;;;;3.40;99.90;;;;;;5106589;28;19915;-73
2020/12/07 07:40:52;;;;;;;;;;;3.40;99.90;;;;;;5107381;28;19938;-77
2020/12/07 07:43:23;;;;;;;;;;;3.40;99.90;;;;;;5108036;28;19937;-75
2020/12/07 07:45:54;;;;;;;;;;;3.50;99.90;;;;;;5108819;28;19931;-75
2020/12/07 07:48:39;;;;;;;;;;;3.50;99.90;;;;;;5106355;28;20322;-73
2020/12/07 08:15:53;;;;;;;;;;;4.00;99.90;;;;;;5097918;28;19998;-73
2020/12/07 08:18:31;;;;;;;;;;;4.00;99.90;;;;;;5100110;27;19999;-73
2020/12/07 08:21:03;;;;;;;;;;;4.00;99.90;;;;;;5109206;28;19907;-73
2020/12/07 08:23:29;;;;;;;;;;;4.00;99.90;;;;;;5105263;28;20478;-73
2020/12/07 08:25:56;;;;;;;;;;;4.00;99.90;;;;;;5097928;28;20008;-74
2020/12/07 08:28:32;;;;;;;;;;;4.10;99.90;;;;;;5091474;28;20089;-74
2020/12/07 08:31:12;;;;;;;;;;;4.00;99.90;;;;;;5089183;28;19943;-73
2020/12/07 08:33:39;;;;;;;;;;;3.90;99.90;;;;;;5093104;28;19908;-76
2020/12/07 08:36:05;;;;;;;;;;;3.80;99.90;;;;;;5089628;28;19904;-75
2020/12/07 08:38:32;;;;;;;;;;;3.90;99.90;;;;;;5091096;28;19912;-77
2020/12/07 08:41:08;;;;;;;;;;;3.90;99.90;;;;;;5097738;28;19923;-75
2020/12/07 08:43:34;;;;;;;;;;;4.00;99.90;;;;;;5090706;28;20001;-76
2020/12/07 08:46:00;;;;;;;;;;;4.00;99.90;;;;;;5097651;28;20309;-72
2020/12/07 08:48:25;;;;;;;;;;;4.00;99.90;;;;;;5090867;28;19991;-73
2020/12/07 08:50:54;;;;;;;;;;;3.80;99.90;;;;;;5097511;28;19908;-74
2020/12/07 08:53:20;;;;;;;;;;;3.80;99.90;;;;;;5091152;28;20024;-74
2020/12/07 08:55:46;;;;;;;;;;;3.90;99.90;;;;;;5104691;28;20359;-74
2020/12/07 08:58:12;;;;;;;;;;;3.80;99.90;;;;;;5106924;28;19912;-74
2020/12/07 09:00:38;;;;;;;;;;;3.90;99.90;;;;;;5097670;28;19923;-74
2020/12/07 09:03:03;;;;;;;;;;;3.70;99.90;;;;;;5089534;28;20547;-74
2020/12/07 09:05:29;;;;;;;;;;;3.70;99.90;;;;;;5099051;28;19911;-73
2020/12/07 09:07:54;;;;;;;;;;;3.80;99.90;;;;;;5088876;28;19911;-73
2020/12/07 09:10:20;;;;;;;;;;;4.00;99.90;;;;;;5099238;28;19908;-74
2020/12/07 09:12:45;;;;;;;;;;;4.00;99.90;;;;;;5092073;28;19923;-75
2020/12/07 09:15:11;;;;;;;;;;;4.10;99.90;;;;;;5105803;28;19908;-73
2020/12/07 09:17:37;;;;;;;;;;;4.10;99.90;;;;;;5110820;28;19915;-73
2020/12/07 09:20:02;;;;;;;;;;;4.10;99.90;;;;;;5104365;28;20011;-75
2020/12/07 09:22:28;;;;;;;;;;;4.10;99.90;;;;;;5092511;28;19912;-75
2020/12/07 09:24:53;;;;;;;;;;;4.20;99.90;;;;;;5103463;28;19908;-76
2020/12/07 09:27:19;;;;;;;;;;;4.20;99.90;;;;;;5092415;28;19904;-76
2020/12/07 09:29:44;;;;;;;;;;;4.30;99.90;;;;;;5099723;28;20476;-70
2020/12/07 09:32:10;;;;;;;;;;;4.30;99.90;;;;;;5110527;28;19996;-70
2020/12/07 09:34:36;;;;;;;;;;;4.00;99.90;;;;;;5109111;28;20420;-69
2020/12/07 09:37:02;;;;;;;;;;;4.00;99.90;;;;;;5111122;28;20322;-69
2020/12/07 09:39:27;;;;;;;;;;;4.20;99.90;;;;;;5107891;28;19915;-69
2020/12/07 09:41:53;;;;;;;;;;;4.40;99.90;;;;;;5112335;28;19914;-69
2020/12/07 09:44:19;;;;;;;;;;;4.40;99.90;;;;;;5105270;28;19916;-69
2020/12/07 09:46:44;;;;;;;;;;;4.40;99.90;;;;;;5096500;28;19904;-69
2020/12/07 09:49:10;;;;;;;;;;;4.10;99.90;;;;;;5078832;28;19923;-72
2020/12/07 09:51:35;;;;;;;;;;;4.20;99.90;;;;;;5097684;28;19904;-69
2020/12/07 09:54:01;;;;;;;;;;;4.20;99.90;;;;;;5095688;28;20021;-70
2020/12/07 09:56:30;;;;;;;;;;;4.10;99.90;;;;;;5105205;28;20034;-71
2020/12/07 09:58:56;;;;;;;;;;;4.40;99.90;;;;;;5105947;28;19915;-73
2020/12/07 10:01:22;;;;;;;;;;;4.30;99.90;;;;;;5111609;28;19999;-69
2020/12/07 10:03:47;;;;;;;;;;;4.30;99.90;;;;;;5108773;28;20270;-70
2020/12/07 10:06:13;;;;;;;;;;;4.10;99.90;;;;;;5106914;28;19930;-75
2020/12/07 10:08:39;;;;;;;;;;;4.10;99.90;;;;;;5109076;28;19916;-74
2020/12/07 10:11:04;;;;;;;;;;;4.20;99.90;;;;;;5111414;27;19907;-69
2020/12/07 10:13:30;;;;;;;;;;;4.10;99.90;;;;;;5109892;28;19911;-69
2020/12/07 10:15:55;;;;;;;;;;;4.10;99.90;;;;;;5110870;28;19908;-81
2020/12/07 10:18:21;;;;;;;;;;;4.20;99.90;;;;;;5110329;27;19982;-69
2020/12/07 10:20:46;;;;;;;;;;;4.30;99.90;;;;;;5095047;28;20382;-76
2020/12/07 10:23:12;;;;;;;;;;;4.30;99.90;;;;;;5108365;28;19912;-69
2020/12/07 10:25:38;;;;;;;;;;;4.20;99.90;;;;;;5100457;28;19910;-69
2020/12/07 10:28:04;;;;;;;;;;;4.30;99.90;;;;;;5092256;28;20503;-69
2020/12/07 10:30:29;;;;;;;;;;;4.40;99.90;;;;;;5106263;28;19908;-69
2020/12/07 10:32:55;;;;;;;;;;;4.30;99.90;;;;;;5110217;28;19904;-69
2020/12/07 10:35:20;;;;;;;;;;;4.30;99.90;;;;;;5101827;28;19904;-69
2020/12/07 10:37:46;;;;;;;;;;;4.30;99.90;;;;;;5093912;28;20502;-70
2020/12/07 10:40:11;;;;;;;;;;;4.40;99.90;;;;;;5107343;28;19904;-69
2020/12/07 10:42:37;;;;;;;;;;;4.40;99.90;;;;;;5111659;28;19904;-69
2020/12/07 10:45:03;;;;;;;;;;;4.40;99.90;;;;;;5099557;28;19919;-69
2020/12/07 10:47:28;;;;;;;;;;;4.50;99.90;;;;;;5110621;28;20498;-69
2020/12/07 10:49:54;;;;;;;;;;;4.50;99.90;;;;;;5102967;28;19948;-69
2020/12/07 10:52:21;;;;;;;;;;;4.50;99.90;;;;;;5110568;28;19915;-68
2020/12/07 10:54:46;;;;;;;;;;;4.50;99.90;;;;;;5104046;28;20430;-69
2020/12/07 10:57:12;;;;;;;;;;;4.50;99.90;;;;;;5090796;28;19969;-69
2020/12/07 10:59:37;;;;;;;;;;;4.60;99.90;;;;;;5098643;28;19961;-69
2020/12/07 11:02:03;;;;;;;;;;;4.60;99.90;;;;;;5110614;28;19914;-69
2020/12/07 11:04:28;;;;;;;;;;;4.50;99.90;;;;;;5105065;28;19907;-68
2020/12/07 11:06:57;;;;;;;;;;;4.60;99.90;;;;;;5093428;28;19911;-69
2020/12/07 11:09:25;;;;;;;;;;;4.60;99.90;;;;;;5096738;28;19922;-69
2020/12/07 11:11:59;;;;;;;;;;;4.60;99.90;;;;;;5093800;28;20570;-69
2020/12/07 11:14:25;;;;;;;;;;;4.40;99.90;;;;;;5077964;28;20268;-70
2020/12/07 11:16:51;;;;;;;;;;;4.70;99.90;;;;;;5106487;28;19904;-70
2020/12/07 11:19:16;;;;;;;;;;;4.60;99.90;;;;;;5102251;28;19955;-69
2020/12/07 11:21:43;;;;;;;;;;;5.00;99.90;;;;;;5105128;28;19904;-70
2020/12/07 11:24:09;;;;;;;;;;;4.80;99.90;;;;;;5106279;27;19919;-70
2020/12/07 11:26:34;;;;;;;;;;;4.70;99.90;;;;;;5106911;28;20399;-70
2020/12/07 11:29:00;;;;;;;;;;;4.70;99.90;;;;;;5088104;28;19916;-69
2020/12/07 11:31:25;;;;;;;;;;;4.80;99.90;;;;;;5105575;28;19927;-70
2020/12/07 11:33:51;;;;;;;;;;;4.80;99.90;;;;;;5104624;28;19912;-70
2020/12/07 11:36:17;;;;;;;;;;;4.80;99.90;;;;;;5107787;28;19927;-70
2020/12/07 11:41:40;;;;;;;;;;;4.60;99.90;;;;;;5107722;28;20088;-69
2020/12/07 11:44:17;;;;;;;;;;;4.80;99.90;;;;;;5103688;28;20065;-70
2020/12/07 11:46:45;;;;;;;;;;;4.90;99.90;;;;;;5110442;28;20015;-70
2020/12/07 11:49:11;;;;;;;;;;;4.80;99.90;;;;;;5102086;28;20051;-70
2020/12/07 11:51:38;;;;;;;;;;;4.80;99.90;;;;;;5095243;28;20058;-73
2020/12/07 11:54:03;;;;;;;;;;;4.90;99.90;;;;;;5093156;28;20611;-69
2020/12/07 11:56:34;;;;;;;;;;;4.90;99.90;;;;;;5098864;28;19951;-70
2020/12/07 11:59:00;;;;;;;;;;;4.80;99.90;;;;;;5092193;28;19918;-70
2020/12/07 12:01:25;;;;;;;;;;;4.90;99.90;;;;;;5096538;28;20401;-70
2020/12/07 12:03:51;;;;;;;;;;;4.80;99.90;;;;;;5092464;28;19930;-69
2020/12/07 12:06:20;;;;;;;;;;;4.90;99.90;;;;;;5108479;28;20340;-69
2020/12/07 12:08:46;;;;;;;;;;;4.80;99.90;;;;;;5106413;28;19984;-70
2020/12/07 12:11:11;;;;;;;;;;;4.90;99.90;;;;;;5107401;28;20340;-69
2020/12/07 12:13:37;;;;;;;;;;;5.00;99.90;;;;;;5106056;28;20489;-69
2020/12/07 12:16:02;;;;;;;;;;;5.00;99.90;;;;;;5105487;28;19915;-75
2020/12/07 12:18:29;;;;;;;;;;;5.10;99.90;;;;;;5096544;28;19908;-69
2020/12/07 12:20:55;;;;;;;;;;;5.20;99.90;;;;;;5077766;28;19919;-69
2020/12/07 12:23:20;;;;;;;;;;;5.30;99.90;;;;;;5091049;28;19908;-72
2020/12/07 12:25:46;;;;;;;;;;;5.20;99.90;;;;;;5097744;28;19904;-69
2020/12/07 12:28:11;;;;;;;;;;;5.30;99.90;;;;;;5105489;28;19923;-70
2020/12/07 12:30:39;;;;;;;;;;;5.30;99.90;;;;;;5103111;28;19914;-70
2020/12/07 12:33:04;;;;;;;;;;;5.40;99.90;;;;;;5106612;28;19914;-69
2020/12/07 12:35:30;;;;;;;;;;;5.40;99.90;;;;;;5103093;28;19905;-70
2020/12/07 12:37:55;;;;;;;;;;;5.30;99.90;;;;;;5104474;28;19904;-70
2020/12/07 12:40:21;;;;;;;;;;;5.40;99.90;;;;;;5099467;28;19914;-70
2020/12/07 12:42:46;;;;;;;;;;;5.40;99.90;;;;;;5088951;28;19908;-69
2020/12/07 12:45:12;;;;;;;;;;;5.40;99.90;;;;;;5098998;28;19922;-71
2020/12/07 12:47:37;;;;;;;;;;;5.60;99.90;;;;;;5088605;28;20504;-70
2020/12/07 12:50:03;;;;;;;;;;;5.70;99.90;;;;;;5096419;28;19939;-69
2020/12/07 12:52:28;;;;;;;;;;;5.70;99.90;;;;;;5108817;28;20049;-70
2020/12/07 12:54:54;;;;;;;;;;;5.60;99.90;;;;;;5099242;28;19915;-70
2020/12/07 12:57:19;;;;;;;;;;;5.80;99.90;;;;;;5107629;28;19943;-69
2020/12/07 12:59:45;;;;;;;;;;;5.80;99.90;;;;;;5084951;28;19908;-70
2020/12/07 13:02:10;;;;;;;;;;;5.80;99.90;;;;;;5105331;28;19911;-69
2020/12/07 13:04:36;;;;;;;;;;;5.80;99.90;;;;;;5103934;28;19908;-70
2020/12/07 13:07:01;;;;;;;;;;;5.70;99.90;;;;;;5107837;28;19908;-70
2020/12/07 13:09:27;;;;;;;;;;;5.80;99.90;;;;;;5106251;28;19916;-70
2020/12/07 13:11:52;;;;;;;;;;;5.70;99.90;;;;;;5107588;28;19911;-70
2020/12/07 13:14:18;;;;;;;;;;;5.80;99.90;;;;;;5103246;28;20000;-70
2020/12/07 13:19:24;;;;;;;;;;;5.80;99.90;;;;;;5105040;28;19911;-70
2020/12/07 13:22:00;;;;;;;;;;;5.90;99.90;;;;;;5107671;28;19904;-70
2020/12/07 13:29:29;;;;;;;;;;;5.80;99.90;;;;;;5095293;28;19934;-69
2020/12/07 13:31:54;;;;;;;;;;;5.90;99.90;;;;;;5108267;28;19934;-70
2020/12/07 13:34:20;;;;;;;;;;;5.80;99.90;;;;;;5100054;28;19908;-72
2020/12/07 13:36:45;;;;;;;;;;;5.90;99.90;;;;;;5075813;28;19919;-74
2020/12/07 13:39:11;;;;;;;;;;;5.80;99.90;;;;;;5111827;28;19934;-74
2020/12/07 13:41:36;;;;;;;;;;;6.00;99.90;;;;;;5095648;28;19927;-73
2020/12/07 13:44:02;;;;;;;;;;;5.80;99.90;;;;;;5090221;28;19954;-73
2020/12/07 13:46:27;;;;;;;;;;;6.00;99.90;;;;;;5100139;28;19911;-73
2020/12/07 13:48:53;;;;;;;;;;;6.10;99.90;;;;;;5100616;28;19919;-73
2020/12/07 13:51:19;;;;;;;;;;;6.00;99.90;;;;;;5096600;28;19911;-73
2020/12/07 13:53:45;;;;;;;;;;;6.00;99.90;;;;;;5089996;28;20069;-73
2020/12/07 13:56:11;;;;;;;;;;;6.10;99.90;;;;;;5098358;28;19911;-73
2020/12/07 13:58:36;;;;;;;;;;;6.10;99.90;;;;;;5086601;28;19912;-74
2020/12/07 14:01:02;;;;;;;;;;;6.40;99.90;;;;;;5081781;28;19911;-73
2020/12/07 14:03:32;;;;;;;;;;;6.50;99.90;;;;;;5094395;28;19907;-73
2020/12/07 14:05:57;;;;;;;;;;;6.60;99.90;;;;;;5100139;28;19964;-73
2020/12/07 14:08:23;;;;;;;;;;;6.80;99.90;;;;;;5093453;28;20210;-73
2020/12/07 14:10:48;;;;;;;;;;;6.80;99.90;;;;;;5100399;28;20073;-73
2020/12/07 14:13:14;;;;;;;;;;;7.00;99.90;;;;;;5099331;28;20357;-73
2020/12/07 14:15:39;;;;;;;;;;;7.00;99.90;;;;;;5100193;28;19903;-72
2020/12/07 14:20:38;;;;;;;;;;;7.10;99.90;;;;;;5101929;28;19904;-75
2020/12/07 14:41:29;;;;;;;;;;;7.20;99.90;;;;;;5110730;28;19904;-72
2020/12/07 14:43:54;;;;;;;;;;;7.10;99.90;;;;;;5108105;28;19925;-72
2020/12/07 14:46:26;;;;;;;;;;;7.20;99.90;;;;;;5107211;28;19903;-73
2020/12/07 14:48:52;;;;;;;;;;;7.40;99.90;;;;;;5105550;28;19937;-73
2020/12/07 14:51:33;;;;;;;;;;;7.40;99.90;;;;;;5110485;28;19933;-72
2020/12/07 14:54:01;;;;;;;;;;;7.40;99.90;;;;;;5088386;28;19920;-75
2020/12/07 14:56:38;;;;;;;;;;;7.50;99.90;;;;;;5108660;28;20320;-72
2020/12/07 15:14:36;;;;;;;;;;;7.50;99.90;;;;;;5098676;28;20034;-72
2020/12/07 15:17:01;;;;;;;;;;;7.60;99.90;;;;;;5095531;28;20379;-72
2020/12/07 15:19:27;;;;;;;;;;;7.40;99.90;;;;;;5107819;28;20414;-72
2020/12/07 15:21:53;;;;;;;;;;;7.40;99.90;;;;;;5107879;28;19907;-72
2020/12/07 15:24:19;;;;;;;;;;;7.40;99.90;;;;;;5103529;28;19908;-71
2020/12/07 15:26:44;;;;;;;;;;;7.40;99.90;;;;;;5108974;28;19910;-72
2020/12/07 15:29:11;;;;;;;;;;;7.40;99.90;;;;;;5107574;28;19915;-72
2020/12/07 15:31:37;;;;;;;;;;;7.40;99.90;;;;;;5107559;28;19903;-72
2020/12/07 15:34:02;;;;;;;;;;;7.30;99.90;;;;;;5103687;28;20585;-71
2020/12/07 15:36:28;;;;;;;;;;;7.40;99.90;;;;;;5109070;28;20276;-71
2020/12/07 15:38:53;;;;;;;;;;;7.40;99.90;;;;;;5090594;28;20021;-72
2020/12/07 15:41:19;;;;;;;;;;;7.30;99.90;;;;;;5106782;28;19910;-72